createdAt,value
2023-02-19T00:00:36.518Z,68.26
2023-02-19T00:01:47.024Z,68.35
2023-02-19T00:02:48.733Z,68.38
2023-02-19T00:03:52.477Z,68.40
2023-02-19T00:04:54.196Z,68.39
2023-02-19T00:05:55.805Z,68.36
2023-02-19T00:06:57.487Z,68.37
2023-02-19T00:07:59.147Z,68.42
2023-02-19T00:09:01.040Z,68.36
2023-02-19T00:10:03.219Z,68.39
2023-02-19T00:11:06.634Z,68.30
2023-02-19T00:12:08.308Z,68.39
2023-02-19T00:13:09.927Z,68.20
2023-02-19T00:14:11.773Z,68.14
2023-02-19T00:15:13.384Z,68.17
2023-02-19T00:16:14.973Z,68.21
2023-02-19T00:17:16.716Z,68.11
2023-02-19T00:18:18.317Z,67.97
2023-02-19T00:19:20.522Z,68.05
2023-02-19T00:20:22.357Z,67.95
2023-02-19T00:21:24.426Z,67.90
2023-02-19T00:22:26.001Z,67.98
2023-02-19T00:23:28.130Z,67.93
2023-02-19T00:24:29.729Z,67.43
2023-02-19T00:25:31.405Z,67.40
2023-02-19T00:26:33.313Z,67.37
2023-02-19T00:27:34.935Z,66.97
2023-02-19T00:28:36.719Z,67.01
2023-02-19T00:29:38.317Z,67.07
2023-02-19T00:30:39.982Z,67.07
2023-02-19T00:31:41.776Z,67.11
2023-02-19T00:32:43.466Z,67.14
2023-02-19T00:33:45.774Z,67.11
2023-02-19T00:34:47.386Z,66.97
2023-02-19T00:35:49.043Z,67.00
2023-02-19T00:36:50.749Z,67.10
2023-02-19T00:37:52.364Z,67.23
2023-02-19T00:38:54.096Z,67.54
2023-02-19T00:39:55.668Z,67.56
2023-02-19T00:40:59.168Z,67.62
2023-02-19T00:42:01.010Z,67.79
2023-02-19T00:43:02.626Z,67.96
2023-02-19T00:44:05.850Z,68.09
2023-02-19T00:45:07.928Z,68.21
2023-02-19T00:46:09.622Z,68.34
2023-02-19T00:47:11.268Z,68.31
2023-02-19T00:48:12.901Z,68.26
2023-02-19T00:49:20.121Z,68.46
2023-02-19T00:50:21.780Z,68.54
2023-02-19T00:51:24.791Z,68.47
2023-02-19T00:52:26.450Z,68.17
2023-02-19T00:53:28.107Z,67.91
2023-02-19T00:54:31.490Z,67.63
2023-02-19T00:55:33.085Z,67.81
2023-02-19T00:56:34.739Z,67.83
2023-02-19T00:57:36.325Z,67.90
2023-02-19T00:58:38.088Z,67.91
2023-02-19T00:59:39.723Z,67.97
2023-02-19T01:00:41.385Z,68.07
2023-02-19T01:01:44.464Z,68.34
2023-02-19T01:02:46.203Z,68.37
2023-02-19T01:03:47.897Z,68.44
2023-02-19T01:04:49.564Z,68.62
2023-02-19T01:05:51.751Z,68.75
2023-02-19T01:06:53.383Z,68.90
2023-02-19T01:07:55.094Z,69.00
2023-02-19T01:08:56.860Z,69.12
2023-02-19T01:09:58.458Z,69.25
2023-02-19T01:11:00.106Z,69.34
2023-02-19T01:12:01.751Z,69.45
2023-02-19T01:13:03.352Z,69.51
2023-02-19T01:14:05.112Z,69.59
2023-02-19T01:15:07.131Z,69.88
2023-02-19T01:16:17.367Z,69.91
2023-02-19T01:17:19.034Z,70.03
2023-02-19T01:18:20.816Z,70.07
2023-02-19T01:19:22.395Z,70.05
2023-02-19T01:20:24.103Z,69.88
2023-02-19T01:21:26.531Z,69.88
2023-02-19T01:22:28.166Z,69.94
2023-02-19T01:23:29.785Z,70.04
2023-02-19T01:24:31.394Z,69.99
2023-02-19T01:25:33.069Z,69.98
2023-02-19T01:26:34.753Z,70.04
2023-02-19T01:27:36.351Z,70.03
2023-02-19T01:28:37.964Z,70.10
2023-02-19T01:29:39.731Z,70.00
2023-02-19T01:30:41.335Z,69.96
2023-02-19T01:31:43.029Z,70.06
2023-02-19T01:32:44.704Z,70.03
2023-02-19T01:33:47.256Z,70.00
2023-02-19T01:34:48.884Z,70.01
2023-02-19T01:35:50.537Z,70.05
2023-02-19T01:36:52.109Z,70.19
2023-02-19T01:37:53.711Z,70.29
2023-02-19T01:38:55.478Z,70.34
2023-02-19T01:39:57.082Z,70.35
2023-02-19T01:41:00.257Z,70.35
2023-02-19T01:42:03.208Z,70.39
2023-02-19T01:43:06.416Z,70.52
2023-02-19T01:44:18.260Z,70.61
2023-02-19T01:45:27.297Z,70.65
2023-02-19T01:46:30.364Z,70.82
2023-02-19T01:47:32.033Z,70.95
2023-02-19T01:48:38.146Z,71.02
2023-02-19T01:49:51.114Z,71.20
2023-02-19T01:51:13.346Z,71.48
2023-02-19T01:52:19.128Z,71.65
2023-02-19T01:53:23.042Z,71.81
2023-02-19T01:54:25.860Z,71.99
2023-02-19T01:55:27.452Z,72.12
2023-02-19T01:56:29.045Z,72.17
2023-02-19T01:57:34.630Z,72.25
2023-02-19T01:58:36.863Z,72.33
2023-02-19T01:59:38.471Z,72.61
2023-02-19T02:00:40.160Z,72.71
2023-02-19T02:01:42.172Z,72.46
2023-02-19T02:02:45.279Z,72.45
2023-02-19T02:03:48.808Z,72.36
2023-02-19T02:04:50.692Z,72.53
2023-02-19T02:06:12.237Z,72.64
2023-02-19T02:07:32.366Z,72.81
2023-02-19T02:08:52.336Z,72.98
2023-02-19T02:10:12.615Z,73.00
2023-02-19T02:11:14.289Z,73.14
2023-02-19T02:12:15.998Z,73.38
2023-02-19T02:13:17.649Z,73.48
2023-02-19T02:14:21.374Z,73.65
2023-02-19T02:15:24.173Z,73.77
2023-02-19T02:16:50.891Z,73.92
2023-02-19T02:18:02.886Z,73.78
2023-02-19T02:19:19.453Z,73.73
2023-02-19T02:20:33.911Z,73.83
2023-02-19T02:22:01.958Z,73.98
2023-02-19T02:23:06.533Z,73.73
2023-02-19T02:24:41.621Z,73.60
2023-02-19T02:26:04.499Z,73.78
2023-02-19T02:27:45.439Z,74.18
2023-02-19T02:29:06.285Z,74.35
2023-02-19T02:30:30.878Z,73.76
2023-02-19T02:31:42.883Z,73.59
2023-02-19T02:32:54.679Z,73.29
2023-02-19T02:34:09.562Z,73.08
2023-02-19T02:35:11.540Z,73.15
2023-02-19T02:36:21.940Z,73.26
2023-02-19T02:37:24.320Z,73.49
2023-02-19T02:38:28.272Z,73.18
2023-02-19T02:39:29.895Z,73.12
2023-02-19T02:40:31.495Z,73.16
2023-02-19T02:41:33.101Z,72.41
2023-02-19T02:42:35.574Z,72.39
2023-02-19T02:43:37.234Z,72.36
2023-02-19T02:44:39.636Z,72.18
2023-02-19T02:45:41.409Z,71.56
2023-02-19T02:46:43.038Z,71.50
2023-02-19T02:47:50.927Z,71.69
2023-02-19T02:48:55.913Z,71.68
2023-02-19T02:50:06.261Z,71.73
2023-02-19T02:51:22.839Z,71.92
2023-02-19T02:52:43.025Z,71.66
2023-02-19T02:54:13.120Z,71.68
2023-02-19T02:55:14.741Z,71.63
2023-02-19T02:56:16.761Z,71.59
2023-02-19T02:57:18.423Z,71.54
2023-02-19T02:58:20.725Z,71.60
2023-02-19T02:59:27.305Z,71.62
2023-02-19T03:00:48.849Z,71.78
2023-02-19T03:02:11.191Z,71.90
2023-02-19T03:03:13.686Z,71.92
2023-02-19T03:05:11.650Z,72.15
2023-02-19T03:06:13.432Z,72.80
2023-02-19T03:07:15.035Z,73.22
2023-02-19T03:08:37.275Z,73.16
2023-02-19T03:09:43.125Z,73.28
2023-02-19T03:10:49.286Z,73.29
2023-02-19T03:12:09.473Z,73.42
2023-02-19T03:13:32.331Z,73.53
2023-02-19T03:15:00.779Z,73.93
2023-02-19T03:16:24.717Z,73.99
2023-02-19T03:17:54.174Z,74.17
2023-02-19T03:19:15.050Z,74.30
2023-02-19T03:20:16.646Z,74.34
2023-02-19T03:21:19.239Z,74.36
2023-02-19T03:22:31.866Z,74.31
2023-02-19T03:23:52.343Z,74.43
2023-02-19T03:25:29.119Z,74.35
2023-02-19T03:26:30.960Z,74.41
2023-02-19T03:27:32.615Z,74.36
2023-02-19T03:28:53.661Z,74.28
2023-02-19T03:29:56.775Z,74.26
2023-02-19T03:30:58.413Z,74.35
2023-02-19T03:32:09.113Z,74.32
2023-02-19T03:33:15.382Z,74.19
2023-02-19T03:34:29.374Z,74.10
2023-02-19T03:35:32.043Z,74.02
2023-02-19T03:36:36.164Z,74.00
2023-02-19T03:37:41.240Z,74.04
2023-02-19T03:38:49.697Z,74.13
2023-02-19T03:39:52.531Z,74.02
2023-02-19T03:41:01.034Z,74.00
2023-02-19T03:42:06.355Z,73.96
2023-02-19T03:43:18.956Z,73.91
2023-02-19T03:44:42.580Z,73.90
2023-02-19T03:46:03.207Z,74.06
2023-02-19T03:47:26.314Z,74.06
2023-02-19T03:48:35.227Z,74.09
2023-02-19T03:49:51.696Z,74.19
2023-02-19T03:51:34.752Z,74.14
2023-02-19T03:52:58.372Z,74.17
2023-02-19T03:54:13.574Z,74.34
2023-02-19T03:55:33.203Z,74.30
2023-02-19T03:56:43.008Z,74.28
2023-02-19T03:58:00.234Z,74.60
2023-02-19T03:59:42.145Z,74.60
2023-02-19T04:00:58.739Z,74.68
2023-02-19T04:02:10.743Z,74.68
2023-02-19T04:03:20.340Z,74.60
2023-02-19T04:04:24.941Z,74.62
2023-02-19T04:05:28.102Z,74.53
2023-02-19T04:06:30.582Z,74.47
2023-02-19T04:07:33.411Z,74.48
2023-02-19T04:08:35.009Z,74.52
2023-02-19T04:09:38.789Z,74.66
2023-02-19T04:10:40.551Z,74.66
2023-02-19T04:11:42.166Z,74.60
2023-02-19T04:12:45.989Z,74.64
2023-02-19T04:14:18.189Z,74.79
2023-02-19T04:15:22.120Z,74.76
2023-02-19T04:16:27.519Z,74.87
2023-02-19T04:17:35.909Z,75.04
2023-02-19T04:18:38.866Z,75.07
2023-02-19T04:19:40.606Z,75.12
2023-02-19T04:20:43.871Z,75.17
2023-02-19T04:21:45.542Z,75.26
2023-02-19T04:22:47.204Z,75.32
2023-02-19T04:23:48.873Z,75.36
2023-02-19T04:24:52.433Z,75.59
2023-02-19T04:25:56.283Z,75.65
2023-02-19T04:26:57.880Z,75.74
2023-02-19T04:27:59.465Z,76.15
2023-02-19T04:29:01.352Z,76.29
2023-02-19T04:30:03.471Z,76.33
2023-02-19T04:31:05.301Z,76.42
2023-02-19T04:32:07.049Z,76.78
2023-02-19T04:33:08.647Z,76.73
2023-02-19T04:34:10.351Z,76.79
2023-02-19T04:35:12.058Z,76.77
2023-02-19T04:36:13.657Z,76.81
2023-02-19T04:37:15.264Z,76.78
2023-02-19T04:38:16.847Z,76.74
2023-02-19T04:39:18.520Z,76.97
2023-02-19T04:40:20.109Z,77.53
2023-02-19T04:41:21.727Z,77.63
2023-02-19T04:42:23.330Z,77.47
2023-02-19T04:43:24.943Z,77.91
2023-02-19T04:44:26.660Z,78.12
2023-02-19T04:45:28.351Z,78.25
2023-02-19T04:46:29.977Z,78.26
2023-02-19T04:47:32.433Z,78.78
2023-02-19T04:48:34.025Z,78.74
2023-02-19T04:49:35.609Z,78.72
2023-02-19T04:50:40.429Z,78.45
2023-02-19T04:51:42.165Z,78.79
2023-02-19T04:52:43.802Z,79.90
2023-02-19T04:53:45.399Z,79.69
2023-02-19T04:54:47.105Z,80.69
2023-02-19T04:55:48.875Z,80.86
2023-02-19T04:56:50.828Z,80.96
2023-02-19T04:57:52.465Z,80.59
2023-02-19T04:58:54.093Z,80.60
2023-02-19T04:59:55.733Z,80.36
2023-02-19T05:00:57.326Z,80.46
2023-02-19T05:01:58.950Z,80.52
2023-02-19T05:03:01.206Z,80.52
2023-02-19T05:04:03.183Z,80.55
2023-02-19T05:05:05.020Z,80.43
2023-02-19T05:06:08.314Z,80.23
2023-02-19T05:07:09.933Z,80.10
2023-02-19T05:08:11.524Z,79.88
2023-02-19T05:09:13.138Z,79.62
2023-02-19T05:10:14.792Z,79.59
2023-02-19T05:11:16.375Z,79.60
2023-02-19T05:12:17.969Z,79.64
2023-02-19T05:13:19.680Z,79.82
2023-02-19T05:14:21.390Z,80.06
2023-02-19T05:15:23.026Z,80.01
2023-02-19T05:16:25.280Z,80.06
2023-02-19T05:17:26.959Z,80.10
2023-02-19T05:18:28.599Z,80.17
2023-02-19T05:19:30.200Z,80.23
2023-02-19T05:20:31.867Z,80.48
2023-02-19T05:21:33.695Z,80.52
2023-02-19T05:22:35.298Z,80.35
2023-02-19T05:23:37.066Z,80.63
2023-02-19T05:24:38.663Z,80.72
2023-02-19T05:25:40.275Z,80.80
2023-02-19T05:26:43.474Z,80.88
2023-02-19T05:27:46.719Z,80.90
2023-02-19T05:28:50.177Z,81.03
2023-02-19T05:29:51.994Z,80.90
2023-02-19T05:30:53.610Z,80.99
2023-02-19T05:31:55.435Z,80.97
2023-02-19T05:32:57.146Z,80.88
2023-02-19T05:33:58.835Z,80.75
2023-02-19T05:35:00.433Z,80.83
2023-02-19T05:36:05.568Z,80.92
2023-02-19T05:37:07.178Z,81.21
2023-02-19T05:38:09.026Z,81.16
2023-02-19T05:39:11.750Z,81.20
2023-02-19T05:40:13.360Z,81.45
2023-02-19T05:41:18.721Z,81.24
2023-02-19T05:42:20.318Z,81.33
2023-02-19T05:43:21.938Z,81.05
2023-02-19T05:44:23.780Z,81.00
2023-02-19T05:45:25.685Z,80.88
2023-02-19T05:46:29.675Z,80.74
2023-02-19T05:47:31.417Z,80.83
2023-02-19T05:48:33.305Z,80.70
2023-02-19T05:49:34.996Z,80.66
2023-02-19T05:50:39.432Z,80.59
2023-02-19T05:51:41.369Z,80.55
2023-02-19T05:52:44.257Z,80.49
2023-02-19T05:53:46.047Z,80.36
2023-02-19T05:54:47.720Z,80.20
2023-02-19T05:55:49.347Z,80.05
2023-02-19T05:56:50.980Z,79.99
2023-02-19T05:57:52.609Z,80.01
2023-02-19T05:58:54.590Z,79.72
2023-02-19T05:59:56.627Z,79.69
2023-02-19T06:00:58.249Z,79.68
2023-02-19T06:01:59.913Z,79.53
2023-02-19T06:03:01.776Z,79.59
2023-02-19T06:04:03.614Z,79.70
2023-02-19T06:05:05.703Z,79.68
2023-02-19T06:06:07.666Z,79.62
2023-02-19T06:07:09.256Z,79.50
2023-02-19T06:08:14.210Z,79.69
2023-02-19T06:09:15.907Z,79.75
2023-02-19T06:10:17.592Z,79.79
2023-02-19T06:11:19.599Z,79.94
2023-02-19T06:12:21.258Z,79.85
2023-02-19T06:13:22.923Z,80.28
2023-02-19T06:14:24.618Z,80.35
2023-02-19T06:15:26.244Z,80.37
2023-02-19T06:16:28.043Z,80.75
2023-02-19T06:17:29.659Z,80.78
2023-02-19T06:18:31.273Z,80.66
2023-02-19T06:19:32.892Z,80.81
2023-02-19T06:20:34.596Z,80.85
2023-02-19T06:21:36.341Z,80.80
2023-02-19T06:22:38.026Z,80.84
2023-02-19T06:23:39.636Z,80.96
2023-02-19T06:24:41.262Z,81.12
2023-02-19T06:25:42.966Z,81.44
2023-02-19T06:26:44.562Z,81.37
2023-02-19T06:27:46.151Z,81.43
2023-02-19T06:28:48.833Z,81.45
2023-02-19T06:29:50.554Z,81.50
2023-02-19T06:30:52.383Z,81.37
2023-02-19T06:31:54.435Z,81.39
2023-02-19T06:32:56.183Z,81.42
2023-02-19T06:33:57.762Z,81.37
2023-02-19T06:34:59.370Z,81.34
2023-02-19T06:36:01.872Z,81.27
2023-02-19T06:37:03.668Z,81.14
2023-02-19T06:38:05.266Z,81.13
2023-02-19T06:39:06.990Z,80.97
2023-02-19T06:40:08.933Z,80.95
2023-02-19T06:41:10.885Z,80.93
2023-02-19T06:42:13.037Z,80.98
2023-02-19T06:43:14.648Z,81.07
2023-02-19T06:44:16.838Z,81.11
2023-02-19T06:45:18.545Z,81.20
2023-02-19T06:46:20.161Z,81.16
2023-02-19T06:47:24.353Z,81.03
2023-02-19T06:48:28.027Z,80.97
2023-02-19T06:49:29.616Z,80.73
2023-02-19T06:50:31.209Z,80.43
2023-02-19T06:51:33.027Z,79.97
2023-02-19T06:52:34.631Z,79.58
2023-02-19T06:53:36.331Z,79.15
2023-02-19T06:54:38.033Z,78.70
2023-02-19T06:55:40.509Z,78.00
2023-02-19T06:56:42.238Z,77.49
2023-02-19T06:57:43.826Z,77.22
2023-02-19T06:58:45.434Z,76.91
2023-02-19T06:59:47.040Z,76.60
2023-02-19T07:00:48.743Z,76.41
2023-02-19T07:01:50.420Z,76.17
2023-02-19T07:02:56.612Z,75.91
2023-02-19T07:03:58.425Z,75.68
2023-02-19T07:05:00.154Z,75.58
2023-02-19T07:06:01.876Z,75.29
2023-02-19T07:07:03.599Z,75.25
2023-02-19T07:08:05.341Z,75.04
2023-02-19T07:09:07.790Z,74.95
2023-02-19T07:10:09.420Z,74.77
2023-02-19T07:11:11.387Z,74.45
2023-02-19T07:12:13.227Z,73.76
2023-02-19T07:13:14.820Z,73.91
2023-02-19T07:14:16.960Z,73.96
2023-02-19T07:15:18.637Z,73.99
2023-02-19T07:16:20.318Z,73.91
2023-02-19T07:17:22.040Z,73.82
2023-02-19T07:18:23.658Z,73.59
2023-02-19T07:19:25.333Z,73.57
2023-02-19T07:20:27.009Z,73.73
2023-02-19T07:21:28.957Z,73.57
2023-02-19T07:22:30.554Z,73.37
2023-02-19T07:23:32.189Z,72.97
2023-02-19T07:24:33.783Z,73.27
2023-02-19T07:25:35.466Z,73.46
2023-02-19T07:26:37.121Z,73.65
2023-02-19T07:27:38.765Z,73.81
2023-02-19T07:28:41.381Z,73.31
2023-02-19T07:29:43.044Z,73.26
2023-02-19T07:30:44.699Z,73.29
2023-02-19T07:31:46.398Z,73.79
2023-02-19T07:32:48.021Z,74.06
2023-02-19T07:33:49.844Z,74.40
2023-02-19T07:34:51.492Z,74.50
2023-02-19T07:35:53.097Z,74.73
2023-02-19T07:36:54.756Z,75.04
2023-02-19T07:37:56.349Z,75.25
2023-02-19T07:38:58.608Z,75.74
2023-02-19T07:40:00.301Z,75.97
2023-02-19T07:41:02.796Z,76.13
2023-02-19T07:42:04.525Z,76.19
2023-02-19T07:43:06.150Z,76.19
2023-02-19T07:44:07.771Z,76.59
2023-02-19T07:45:09.684Z,76.81
2023-02-19T07:46:12.613Z,76.78
2023-02-19T07:47:14.218Z,77.15
2023-02-19T07:48:15.859Z,77.17
2023-02-19T07:49:17.611Z,77.16
2023-02-19T07:50:19.207Z,77.02
2023-02-19T07:51:20.919Z,77.55
2023-02-19T07:52:22.603Z,77.86
2023-02-19T07:53:24.376Z,77.95
2023-02-19T07:54:26.070Z,78.29
2023-02-19T07:55:27.658Z,78.65
2023-02-19T07:56:29.278Z,79.04
2023-02-19T07:57:31.405Z,79.19
2023-02-19T07:58:33.506Z,80.18
2023-02-19T07:59:35.223Z,80.17
2023-02-19T08:00:36.819Z,80.37
2023-02-19T08:01:56.948Z,80.46
2023-02-19T08:03:01.206Z,81.13
2023-02-19T08:04:02.837Z,81.47
2023-02-19T08:05:05.187Z,81.33
2023-02-19T08:06:07.233Z,81.92
2023-02-19T08:07:08.878Z,82.73
2023-02-19T08:08:12.361Z,83.30
2023-02-19T08:09:13.958Z,83.56
2023-02-19T08:10:34.109Z,83.71
2023-02-19T08:11:54.572Z,84.45
2023-02-19T08:13:18.018Z,84.38
2023-02-19T08:14:19.782Z,84.42
2023-02-19T08:15:22.507Z,84.95
2023-02-19T08:16:40.871Z,84.84
2023-02-19T08:17:44.415Z,84.92
2023-02-19T08:18:46.831Z,85.25
2023-02-19T08:19:48.436Z,85.50
2023-02-19T08:20:50.190Z,85.53
2023-02-19T08:21:53.590Z,85.95
2023-02-19T08:22:55.284Z,85.67
2023-02-19T08:23:56.885Z,85.99
2023-02-19T08:24:58.469Z,85.91
2023-02-19T08:26:00.456Z,85.95
2023-02-19T08:27:02.120Z,85.75
2023-02-19T08:28:04.037Z,85.54
2023-02-19T08:29:05.922Z,85.59
2023-02-19T08:30:08.928Z,85.72
2023-02-19T08:31:12.176Z,85.89
2023-02-19T08:32:14.141Z,86.28
2023-02-19T08:33:17.540Z,86.16
2023-02-19T08:34:19.122Z,86.00
2023-02-19T08:35:20.805Z,85.99
2023-02-19T08:36:22.398Z,85.83
2023-02-19T08:37:24.045Z,85.80
2023-02-19T08:38:25.653Z,85.87
2023-02-19T08:39:27.249Z,85.92
2023-02-19T08:40:28.956Z,85.59
2023-02-19T08:41:30.547Z,85.82
2023-02-19T08:42:32.164Z,85.99
2023-02-19T08:43:33.860Z,85.79
2023-02-19T08:44:35.476Z,85.66
2023-02-19T08:45:44.244Z,85.59
2023-02-19T08:46:45.921Z,85.54
2023-02-19T08:47:47.512Z,85.51
2023-02-19T08:48:49.103Z,85.70
2023-02-19T08:49:50.776Z,85.65
2023-02-19T08:51:04.060Z,85.44
2023-02-19T08:52:05.696Z,85.18
2023-02-19T08:53:07.315Z,85.14
2023-02-19T08:54:08.930Z,85.15
2023-02-19T08:55:10.595Z,85.25
2023-02-19T08:56:14.752Z,85.26
2023-02-19T08:57:16.356Z,85.33
2023-02-19T08:58:18.013Z,85.51
2023-02-19T08:59:20.710Z,85.67
2023-02-19T09:00:22.658Z,85.47
2023-02-19T09:01:24.436Z,85.52
2023-02-19T09:02:26.141Z,85.27
2023-02-19T09:03:27.787Z,85.23
2023-02-19T09:04:29.535Z,85.23
2023-02-19T09:05:31.297Z,85.29
2023-02-19T09:06:32.920Z,84.89
2023-02-19T09:07:34.528Z,84.81
2023-02-19T09:08:36.135Z,84.87
2023-02-19T09:09:38.165Z,84.81
2023-02-19T09:10:40.032Z,84.88
2023-02-19T09:11:41.714Z,84.77
2023-02-19T09:12:43.365Z,84.65
2023-02-19T09:13:45.077Z,84.81
2023-02-19T09:14:46.845Z,84.83
2023-02-19T09:15:48.571Z,85.08
2023-02-19T09:16:50.199Z,84.90
2023-02-19T09:17:52.860Z,85.27
2023-02-19T09:18:54.451Z,85.48
2023-02-19T09:19:56.045Z,85.99
2023-02-19T09:21:02.295Z,86.23
2023-02-19T09:22:04.550Z,85.96
2023-02-19T09:23:06.137Z,86.23
2023-02-19T09:24:09.186Z,86.07
2023-02-19T09:25:10.812Z,86.25
2023-02-19T09:26:14.058Z,86.06
2023-02-19T09:27:16.815Z,85.89
2023-02-19T09:28:18.441Z,85.95
2023-02-19T09:29:20.834Z,86.05
2023-02-19T09:30:22.774Z,85.88
2023-02-19T09:31:24.741Z,85.76
2023-02-19T09:32:26.707Z,85.83
2023-02-19T09:33:28.447Z,85.67
2023-02-19T09:34:30.445Z,85.71
2023-02-19T09:35:32.263Z,85.67
2023-02-19T09:36:33.910Z,85.72
2023-02-19T09:37:35.666Z,85.45
2023-02-19T09:38:37.496Z,85.48
2023-02-19T09:39:39.423Z,85.73
2023-02-19T09:40:41.183Z,85.53
2023-02-19T09:41:55.725Z,85.56
2023-02-19T09:42:57.448Z,85.95
2023-02-19T09:43:59.525Z,85.48
2023-02-19T09:45:01.254Z,85.43
2023-02-19T09:46:06.911Z,85.35
2023-02-19T09:47:21.995Z,84.83
2023-02-19T09:48:23.713Z,85.45
2023-02-19T09:49:29.397Z,84.97
2023-02-19T09:50:39.256Z,85.12
2023-02-19T09:51:43.123Z,84.71
2023-02-19T09:52:57.833Z,84.45
2023-02-19T09:53:59.896Z,84.65
2023-02-19T09:55:03.615Z,84.55
2023-02-19T09:56:05.963Z,84.46
2023-02-19T09:57:15.267Z,84.75
2023-02-19T09:58:36.086Z,84.51
2023-02-19T09:59:42.360Z,84.19
2023-02-19T10:00:44.034Z,84.43
2023-02-19T10:01:46.376Z,84.58
2023-02-19T10:02:51.565Z,84.04
2023-02-19T10:03:53.651Z,83.39
2023-02-19T10:04:55.560Z,83.77
2023-02-19T10:06:06.039Z,83.67
2023-02-19T10:07:12.759Z,83.40
2023-02-19T10:08:18.360Z,83.02
2023-02-19T10:09:27.120Z,82.95
2023-02-19T10:10:36.122Z,82.75
2023-02-19T10:11:38.068Z,82.39
2023-02-19T10:12:52.818Z,82.67
2023-02-19T10:14:09.836Z,82.95
2023-02-19T10:15:16.190Z,82.54
2023-02-19T10:16:20.677Z,81.56
2023-02-19T10:17:32.137Z,81.50
2023-02-19T10:18:41.214Z,82.17
2023-02-19T10:19:42.907Z,81.67
2023-02-19T10:20:45.022Z,81.14
2023-02-19T10:21:46.945Z,80.76
2023-02-19T10:22:48.681Z,80.14
2023-02-19T10:23:53.835Z,78.66
2023-02-19T10:24:56.004Z,78.60
2023-02-19T10:26:00.683Z,78.95
2023-02-19T10:27:02.337Z,78.80
2023-02-19T10:28:04.152Z,78.60
2023-02-19T10:29:06.152Z,77.67
2023-02-19T10:30:09.622Z,78.16
2023-02-19T10:31:20.903Z,78.23
2023-02-19T10:32:24.788Z,76.48
2023-02-19T10:33:27.082Z,76.67
2023-02-19T10:34:29.138Z,75.89
2023-02-19T10:35:31.467Z,75.57
2023-02-19T10:36:40.288Z,75.54
2023-02-19T10:37:49.666Z,75.35
2023-02-19T10:38:51.542Z,74.90
2023-02-19T10:39:53.338Z,74.38
2023-02-19T10:41:07.018Z,74.50
2023-02-19T10:42:16.840Z,74.75
2023-02-19T10:43:24.000Z,74.26
2023-02-19T10:44:27.447Z,74.43
2023-02-19T10:45:39.847Z,73.53
2023-02-19T10:46:48.464Z,73.43
2023-02-19T10:47:50.817Z,72.86
2023-02-19T10:49:03.619Z,73.78
2023-02-19T10:50:08.866Z,73.30
2023-02-19T10:51:12.229Z,72.71
2023-02-19T10:52:20.507Z,72.77
2023-02-19T10:53:25.763Z,72.82
2023-02-19T10:54:35.840Z,72.77
2023-02-19T10:55:41.304Z,72.77
2023-02-19T10:56:43.034Z,73.18
2023-02-19T10:57:44.831Z,73.06
2023-02-19T10:58:47.368Z,72.15
2023-02-19T10:59:54.217Z,72.67
2023-02-19T11:01:25.733Z,71.32
2023-02-19T11:02:27.839Z,71.62
2023-02-19T11:03:29.551Z,71.87
2023-02-19T11:04:35.221Z,72.02
2023-02-19T11:05:38.256Z,69.53
2023-02-19T11:06:40.381Z,69.54
2023-02-19T11:07:56.405Z,67.83
2023-02-19T11:09:00.487Z,67.86
2023-02-19T11:10:02.386Z,67.14
2023-02-19T11:11:04.526Z,67.11
2023-02-19T11:12:08.431Z,67.07
2023-02-19T11:13:17.191Z,67.01
2023-02-19T11:14:23.518Z,66.29
2023-02-19T11:15:31.143Z,66.27
2023-02-19T11:16:44.205Z,65.90
2023-02-19T11:17:46.154Z,65.54
2023-02-19T11:18:57.170Z,64.97
2023-02-19T11:20:09.605Z,64.88
2023-02-19T11:21:33.100Z,64.61
2023-02-19T11:22:38.383Z,64.87
2023-02-19T11:23:46.250Z,64.58
2023-02-19T11:24:49.186Z,64.19
2023-02-19T11:25:50.801Z,65.13
2023-02-19T11:26:52.731Z,64.87
2023-02-19T11:28:18.414Z,64.88
2023-02-19T11:29:23.625Z,64.57
2023-02-19T11:30:35.341Z,64.58
2023-02-19T11:31:38.002Z,64.97
2023-02-19T11:32:39.697Z,64.45
2023-02-19T11:33:54.036Z,64.75
2023-02-19T11:35:19.614Z,64.65
2023-02-19T11:36:38.015Z,63.80
2023-02-19T11:37:54.145Z,63.38
2023-02-19T11:38:56.012Z,63.13
2023-02-19T11:39:58.147Z,64.33
2023-02-19T11:41:06.604Z,63.29
2023-02-19T11:42:29.761Z,64.65
2023-02-19T11:43:38.089Z,63.39
2023-02-19T11:45:18.602Z,63.14
2023-02-19T11:46:43.901Z,63.04
2023-02-19T11:47:54.390Z,62.78
2023-02-19T11:49:02.631Z,62.45
2023-02-19T11:50:44.564Z,62.95
2023-02-19T11:52:18.734Z,62.80
2023-02-19T11:53:32.350Z,62.35
2023-02-19T11:54:40.598Z,61.76
2023-02-19T11:56:16.953Z,61.36
2023-02-19T11:57:35.766Z,62.67
2023-02-19T11:58:49.702Z,64.08
2023-02-19T12:00:17.548Z,63.59
2023-02-19T12:01:29.578Z,62.24
2023-02-19T12:02:34.710Z,62.33
2023-02-19T12:03:50.169Z,62.39
2023-02-19T12:05:07.492Z,62.60
2023-02-19T12:06:37.757Z,61.65
2023-02-19T12:08:16.857Z,61.70
2023-02-19T12:09:45.709Z,62.98
2023-02-19T12:11:00.294Z,62.01
2023-02-19T12:12:05.018Z,61.79
2023-02-19T12:13:34.360Z,62.01
2023-02-19T12:14:54.519Z,62.39
2023-02-19T12:16:27.327Z,63.16
2023-02-19T12:17:29.031Z,62.89
2023-02-19T12:18:49.987Z,62.28
2023-02-19T12:20:26.284Z,62.01
2023-02-19T12:21:44.241Z,61.53
2023-02-19T12:23:15.593Z,60.51
2023-02-19T12:24:49.243Z,61.75
2023-02-19T12:26:40.436Z,60.14
2023-02-19T12:28:16.220Z,61.12
2023-02-19T12:29:42.219Z,61.21
2023-02-19T12:31:04.171Z,61.03
2023-02-19T12:32:13.211Z,60.42
2023-02-19T12:33:35.788Z,60.73
2023-02-19T12:34:49.833Z,60.89
2023-02-19T12:35:51.585Z,61.60
2023-02-19T12:37:30.828Z,61.46
2023-02-19T12:38:51.074Z,61.78
2023-02-19T12:40:27.021Z,61.81
2023-02-19T12:41:41.587Z,61.57
2023-02-19T12:43:31.421Z,62.02
2023-02-19T12:44:43.714Z,62.50
2023-02-19T12:45:49.847Z,62.37
2023-02-19T12:46:56.968Z,62.51
2023-02-19T12:48:16.243Z,61.84
2023-02-19T12:49:47.184Z,62.46
2023-02-19T12:50:51.221Z,62.47
2023-02-19T12:51:57.714Z,61.91
2023-02-19T12:53:05.897Z,62.48
2023-02-19T12:54:29.465Z,62.74
2023-02-19T12:55:34.846Z,61.49
2023-02-19T12:56:51.127Z,60.90
2023-02-19T12:57:53.736Z,60.44
2023-02-19T12:59:02.280Z,61.00
2023-02-19T13:00:30.122Z,60.21
2023-02-19T13:01:41.897Z,60.21
2023-02-19T13:03:05.442Z,60.34
2023-02-19T13:04:37.667Z,60.82
2023-02-19T13:06:19.213Z,59.59
2023-02-19T13:07:33.871Z,59.69
2023-02-19T13:09:06.383Z,60.85
2023-02-19T13:10:19.553Z,59.53
2023-02-19T13:11:24.823Z,59.61
2023-02-19T13:12:31.541Z,59.89
2023-02-19T13:13:44.554Z,60.12
2023-02-19T13:14:49.054Z,60.61
2023-02-19T13:15:53.077Z,61.11
2023-02-19T13:17:03.577Z,60.59
2023-02-19T13:18:07.783Z,60.85
2023-02-19T13:19:11.732Z,60.34
2023-02-19T13:20:32.764Z,59.82
2023-02-19T13:21:54.878Z,60.41
2023-02-19T13:23:29.141Z,59.56
2023-02-19T13:24:34.002Z,60.03
2023-02-19T13:26:14.664Z,60.53
2023-02-19T13:27:34.553Z,60.88
2023-02-19T13:28:53.001Z,60.51
2023-02-19T13:29:55.070Z,60.16
2023-02-19T13:31:34.741Z,60.19
2023-02-19T13:32:45.827Z,60.37
2023-02-19T13:34:06.294Z,60.42
2023-02-19T13:35:17.994Z,60.16
2023-02-19T13:36:29.219Z,60.42
2023-02-19T13:37:34.941Z,60.80
2023-02-19T13:38:44.641Z,60.26
2023-02-19T13:39:50.429Z,60.48
2023-02-19T13:40:59.266Z,61.25
2023-02-19T13:42:02.495Z,61.69
2023-02-19T13:43:28.428Z,60.76
2023-02-19T13:44:32.214Z,60.64
2023-02-19T13:45:45.718Z,59.97
2023-02-19T13:46:48.932Z,60.46
2023-02-19T13:47:59.886Z,60.58
2023-02-19T13:49:28.396Z,61.34
2023-02-19T13:50:32.311Z,61.29
2023-02-19T13:51:38.433Z,61.90
2023-02-19T13:52:40.789Z,62.00
2023-02-19T13:53:43.120Z,63.02
2023-02-19T13:54:45.432Z,64.05
2023-02-19T13:55:54.009Z,66.98
2023-02-19T13:57:25.514Z,67.88
2023-02-19T13:58:33.850Z,69.94
2023-02-19T13:59:39.407Z,73.05
2023-02-19T14:00:49.441Z,75.83
2023-02-19T14:01:51.616Z,76.84
2023-02-19T14:03:00.805Z,77.81
2023-02-19T14:04:17.799Z,78.34
2023-02-19T14:05:20.135Z,79.04
2023-02-19T14:06:22.301Z,81.07
2023-02-19T14:07:26.891Z,81.83
2023-02-19T14:08:54.086Z,81.76
2023-02-19T14:09:56.221Z,83.44
2023-02-19T14:10:58.301Z,83.01
2023-02-19T14:12:16.122Z,83.74
2023-02-19T14:13:53.548Z,84.12
2023-02-19T14:14:55.947Z,84.86
2023-02-19T14:15:59.632Z,85.00
2023-02-19T14:17:22.977Z,85.82
2023-02-19T14:18:44.688Z,85.52
2023-02-19T14:19:55.324Z,85.31